DLH454 EDDF-KSFO
Flight info
| Callsign | DLH454 |
|---|---|
| Flight time | N/A |
| Altitude | 36000 |
| Route | OBOKA3W OBOKA Z28 DIBIR DCT BUDIP DCT GODOS DCT GOMUP/M084F370 NATA LIBOR/M084F380 DCT BERUS/N0497F380 DCT YFB DCT 63N080W/N0497F400 61N090W 57N100W DCT POLLE DCT WALSH DCT BOI DCT MRRLO BDEGA4 |
| Aircraft | A359/H-SDE2E3GHIJ3J4J5LM1ORWXY/LB1D1 |
Departure
| Time | 2026-05-07 11:03 |
|---|---|
| Airport | Frankfurt Main Airport (EDDF) |
Arrival
| Time | N/A |
|---|---|
| Airport | San Francisco International Airport (KSFO) |
| Time | Latitude | Longitude | Altitude | Speed | Heading |
|---|---|---|---|---|---|
| 2026-05-07 10:21 | 50.04703 | 8.56157 | 353 ft | 0 kts | 339° |
| 2026-05-07 10:46 | 50.04702 | 8.56157 | 360 ft | 1 kts | 339° |
| 2026-05-07 10:46 | 50.04686 | 8.56167 | 361 ft | 3 kts | 339° |
| 2026-05-07 10:47 | 50.04668 | 8.56177 | 363 ft | 3 kts | 339° |
| 2026-05-07 10:47 | 50.04653 | 8.56187 | 363 ft | 0 kts | 326° |
| 2026-05-07 10:48 | 50.04647 | 8.56193 | 363 ft | 3 kts | 311° |
| 2026-05-07 10:48 | 50.04637 | 8.56217 | 363 ft | 3 kts | 291° |
| 2026-05-07 10:48 | 50.04631 | 8.56243 | 363 ft | 3 kts | 288° |
| 2026-05-07 10:48 | 50.04629 | 8.56271 | 361 ft | 2 kts | 263° |
| 2026-05-07 10:49 | 50.04631 | 8.56292 | 361 ft | 0 kts | 252° |
| 2026-05-07 10:52 | 50.04622 | 8.56248 | 363 ft | 12 kts | 252° |
| 2026-05-07 10:52 | 50.04586 | 8.56092 | 362 ft | 16 kts | 250° |
| 2026-05-07 10:52 | 50.04525 | 8.55956 | 361 ft | 15 kts | 206° |
| 2026-05-07 10:53 | 50.04493 | 8.55940 | 361 ft | 2 kts | 195° |
| 2026-05-07 10:53 | 50.04439 | 8.55918 | 361 ft | 11 kts | 190° |
| 2026-05-07 10:53 | 50.04342 | 8.55931 | 359 ft | 14 kts | 155° |
| 2026-05-07 10:53 | 50.04285 | 8.55974 | 361 ft | 0 kts | 146° |
| 2026-05-07 10:54 | 50.04263 | 8.55971 | 363 ft | 4 kts | 205° |
| 2026-05-07 10:54 | 50.04191 | 8.55929 | 355 ft | 18 kts | 181° |
| 2026-05-07 10:54 | 50.04082 | 8.56050 | 361 ft | 21 kts | 95° |
| 2026-05-07 10:54 | 50.04121 | 8.56265 | 363 ft | 21 kts | 71° |
| 2026-05-07 10:55 | 50.04172 | 8.56484 | 359 ft | 22 kts | 68° |
| 2026-05-07 10:55 | 50.04226 | 8.56702 | 361 ft | 22 kts | 70° |
| 2026-05-07 10:55 | 50.04277 | 8.56916 | 359 ft | 16 kts | 69° |
| 2026-05-07 10:55 | 50.04311 | 8.57055 | 362 ft | 10 kts | 69° |
| 2026-05-07 10:56 | 50.04330 | 8.57131 | 361 ft | 0 kts | 69° |
| 2026-05-07 10:56 | 50.04351 | 8.57216 | 358 ft | 11 kts | 69° |
| 2026-05-07 10:56 | 50.04380 | 8.57335 | 357 ft | 13 kts | 70° |
| 2026-05-07 10:57 | 50.04413 | 8.57476 | 360 ft | 16 kts | 70° |
| 2026-05-07 10:57 | 50.04456 | 8.57661 | 359 ft | 20 kts | 70° |
| 2026-05-07 10:57 | 50.04514 | 8.57904 | 362 ft | 30 kts | 71° |
| 2026-05-07 10:57 | 50.04581 | 8.58180 | 363 ft | 17 kts | 69° |
| 2026-05-07 10:58 | 50.04625 | 8.58368 | 357 ft | 22 kts | 70° |
| 2026-05-07 10:58 | 50.04647 | 8.58482 | 362 ft | 2 kts | 86° |
| 2026-05-07 10:58 | 50.04631 | 8.58549 | 357 ft | 8 kts | 128° |
| 2026-05-07 10:58 | 50.04601 | 8.58579 | 360 ft | 0 kts | 153° |
| 2026-05-07 11:01 | 50.04559 | 8.58609 | 359 ft | 15 kts | 160° |
| 2026-05-07 11:01 | 50.04483 | 8.58562 | 362 ft | 12 kts | 237° |
| 2026-05-07 11:01 | 50.04474 | 8.58529 | 362 ft | 0 kts | 248° |
| 2026-05-07 11:02 | 50.04473 | 8.58523 | 362 ft | 6 kts | 247° |
| 2026-05-07 11:02 | 50.04253 | 8.57613 | 361 ft | 101 kts | 249° |
| 2026-05-07 11:03 | 50.03829 | 8.55833 | 362 ft | 161 kts | 249° |
| 2026-05-07 11:03 | 50.03093 | 8.52875 | 1182 ft | 164 kts | 249° |
| 2026-05-07 11:03 | 50.02688 | 8.51223 | 1787 ft | 167 kts | 257° |
| 2026-05-07 11:04 | 50.02626 | 8.49416 | 2086 ft | 175 kts | 282° |
| 2026-05-07 11:04 | 50.02906 | 8.47527 | 2438 ft | 186 kts | 282° |
| 2026-05-07 11:04 | 50.03070 | 8.45435 | 2648 ft | 204 kts | 275° |
| 2026-05-07 11:04 | 50.02950 | 8.43119 | 2936 ft | 223 kts | 262° |
| 2026-05-07 11:05 | 50.02839 | 8.40641 | 3258 ft | 237 kts | 278° |
| 2026-05-07 11:05 | 50.03419 | 8.38236 | 3669 ft | 245 kts | 307° |
| 2026-05-07 11:05 | 50.04580 | 8.36274 | 4276 ft | 249 kts | 316° |
| 2026-05-07 11:05 | 50.05851 | 8.34438 | 4863 ft | 253 kts | 318° |
| 2026-05-07 11:06 | 50.07158 | 8.32574 | 5460 ft | 256 kts | 318° |
| 2026-05-07 11:06 | 50.09274 | 8.29549 | 6456 ft | 259 kts | 317° |
| 2026-05-07 11:06 | 50.14684 | 8.21752 | 8742 ft | 269 kts | 318° |
| 2026-05-07 11:06 | 50.20584 | 8.13231 | 10228 ft | 312 kts | 317° |
| 2026-05-07 11:07 | 50.24434 | 8.07642 | 11695 ft | 314 kts | 317° |
| 2026-05-07 11:07 | 50.26036 | 8.05312 | 12100 ft | 322 kts | 317° |
| 2026-05-07 11:07 | 50.30898 | 7.98233 | 13092 ft | 346 kts | 317° |
| 2026-05-07 11:07 | 50.38413 | 7.87250 | 14029 ft | 382 kts | 317° |
| 2026-05-07 11:08 | 50.46260 | 7.75729 | 15494 ft | 395 kts | 317° |
| 2026-05-07 11:08 | 50.54277 | 7.63899 | 17325 ft | 395 kts | 317° |
| 2026-05-07 11:08 | 50.62328 | 7.51961 | 19318 ft | 392 kts | 317° |
| 2026-05-07 11:08 | 50.70548 | 7.39713 | 19981 ft | 420 kts | 316° |
| 2026-05-07 11:09 | 50.78302 | 7.25685 | 21207 ft | 430 kts | 305° |
| 2026-05-07 11:09 | 50.85178 | 7.09928 | 22317 ft | 442 kts | 304° |
| 2026-05-07 11:09 | 50.92201 | 6.94051 | 23874 ft | 442 kts | 304° |
| 2026-05-07 11:09 | 50.99409 | 6.77688 | 24632 ft | 458 kts | 304° |
| 2026-05-07 11:10 | 51.06661 | 6.61128 | 26165 ft | 455 kts | 304° |
| 2026-05-07 11:10 | 51.11414 | 6.50256 | 27238 ft | 455 kts | 304° |
| 2026-05-07 11:10 | 51.21175 | 6.27657 | 28768 ft | 468 kts | 304° |
| 2026-05-07 11:10 | 51.28589 | 6.10393 | 29669 ft | 479 kts | 304° |
| 2026-05-07 11:11 | 51.35990 | 5.92364 | 30815 ft | 485 kts | 305° |
| 2026-05-07 11:11 | 51.45823 | 5.77515 | 31596 ft | 491 kts | 321° |
| 2026-05-07 11:11 | 51.51991 | 5.69894 | 31842 ft | 494 kts | 321° |
| 2026-05-07 11:11 | 51.57423 | 5.63179 | 32511 ft | 491 kts | 321° |
| 2026-05-07 11:12 | 51.62834 | 5.56421 | 33085 ft | 490 kts | 321° |
| 2026-05-07 11:12 | 51.68164 | 5.49726 | 33571 ft | 489 kts | 321° |
| 2026-05-07 11:12 | 51.73542 | 5.42945 | 33974 ft | 489 kts | 321° |
| 2026-05-07 11:12 | 51.78918 | 5.36146 | 34325 ft | 489 kts | 321° |
| 2026-05-07 11:13 | 51.84289 | 5.29333 | 34640 ft | 489 kts | 320° |
| 2026-05-07 11:13 | 51.89612 | 5.22560 | 34929 ft | 489 kts | 320° |
| 2026-05-07 11:13 | 51.94972 | 5.15719 | 35206 ft | 490 kts | 321° |
| 2026-05-07 11:13 | 52.00353 | 5.08829 | 35476 ft | 491 kts | 321° |
| 2026-05-07 11:14 | 52.05712 | 5.01945 | 35756 ft | 491 kts | 320° |
| 2026-05-07 11:14 | 52.11063 | 4.95051 | 36025 ft | 491 kts | 320° |
| 2026-05-07 11:14 | 52.21742 | 4.81226 | 36073 ft | 492 kts | 320° |
| 2026-05-07 11:15 | 52.32464 | 4.67257 | 36067 ft | 492 kts | 321° |
| 2026-05-07 11:15 | 52.43130 | 4.53273 | 36094 ft | 492 kts | 320° |
| 2026-05-07 11:16 | 52.53763 | 4.39240 | 36080 ft | 492 kts | 321° |
| 2026-05-07 11:16 | 52.64196 | 4.25386 | 36089 ft | 492 kts | 320° |
| 2026-05-07 11:17 | 52.74852 | 4.11142 | 36097 ft | 492 kts | 321° |
| 2026-05-07 11:17 | 52.85482 | 3.96843 | 36102 ft | 493 kts | 321° |
| 2026-05-07 11:18 | 52.94345 | 3.84850 | 36102 ft | 494 kts | 321° |
| 2026-05-07 11:18 | 53.04942 | 3.70426 | 36105 ft | 493 kts | 321° |
| 2026-05-07 11:19 | 53.10255 | 3.63158 | 36106 ft | 493 kts | 321° |
| 2026-05-07 11:19 | 53.15525 | 3.55924 | 36107 ft | 493 kts | 321° |
| 2026-05-07 11:20 | 53.20846 | 3.48597 | 36112 ft | 494 kts | 321° |
| 2026-05-07 11:20 | 53.25618 | 3.40455 | 36107 ft | 494 kts | 307° |
| 2026-05-07 11:21 | 53.28805 | 3.32478 | 36110 ft | 495 kts | 303° |
| 2026-05-07 11:21 | 53.32984 | 3.21019 | 36110 ft | 495 kts | 301° |
| 2026-05-07 11:22 | 53.35928 | 3.12777 | 36108 ft | 496 kts | 302° |
| 2026-05-07 11:22 | 53.39488 | 3.02834 | 36108 ft | 496 kts | 301° |
| 2026-05-07 11:23 | 53.43021 | 2.92987 | 36107 ft | 496 kts | 301° |
| 2026-05-07 11:23 | 53.46597 | 2.83002 | 36109 ft | 500 kts | 301° |
| 2026-05-07 11:24 | 53.50164 | 2.73000 | 36110 ft | 502 kts | 301° |
| 2026-05-07 11:24 | 53.53753 | 2.62894 | 36114 ft | 502 kts | 301° |
| 2026-05-07 11:25 | 53.57308 | 2.52838 | 36110 ft | 502 kts | 301° |
| 2026-05-07 11:25 | 53.60876 | 2.42708 | 36113 ft | 502 kts | 301° |
| 2026-05-07 11:26 | 53.64418 | 2.32606 | 36113 ft | 502 kts | 301° |
| 2026-05-07 11:26 | 53.67972 | 2.22434 | 36116 ft | 502 kts | 301° |
| 2026-05-07 11:27 | 53.71487 | 2.12329 | 36115 ft | 502 kts | 301° |
| 2026-05-07 11:27 | 53.75025 | 2.02119 | 36130 ft | 502 kts | 300° |
| 2026-05-07 11:28 | 53.78536 | 1.91942 | 36128 ft | 503 kts | 300° |
| 2026-05-07 11:28 | 53.82067 | 1.81663 | 36089 ft | 504 kts | 300° |
| 2026-05-07 11:29 | 53.83814 | 1.76561 | 35876 ft | 508 kts | 300° |
| 2026-05-07 11:29 | 53.85593 | 1.71349 | 35491 ft | 513 kts | 300° |
| 2026-05-07 11:29 | 53.87393 | 1.66058 | 34982 ft | 519 kts | 300° |
| 2026-05-07 11:29 | 53.89201 | 1.60707 | 34380 ft | 527 kts | 300° |
| 2026-05-07 11:30 | 53.91010 | 1.55306 | 33621 ft | 537 kts | 300° |
| 2026-05-07 11:30 | 53.92883 | 1.49697 | 32622 ft | 549 kts | 300° |
| 2026-05-07 11:30 | 53.94770 | 1.44065 | 30313 ft | 554 kts | 300° |
| 2026-05-07 11:30 | 53.96615 | 1.38580 | 22575 ft | 515 kts | 299° |
| 2026-05-07 11:31 | 53.98457 | 1.33160 | 12174 ft | 418 kts | 299° |
| 2026-05-07 11:31 | 54.00157 | 1.29312 | 11511 ft | 392 kts | 319° |
| 2026-05-07 11:31 | 54.01444 | 1.27575 | 7073 ft | 309 kts | 315° |